createdAt,value
2022-11-28T00:01:29.577Z,101961.44
2022-11-28T00:03:57.197Z,101955.78
2022-11-28T00:06:25.427Z,101953.31
2022-11-28T00:08:53.103Z,101960.41
2022-11-28T00:11:21.149Z,101961.63
2022-11-28T00:13:48.981Z,101945.78
2022-11-28T00:16:21.360Z,101935.41
2022-11-28T00:18:54.574Z,101938.16
2022-11-28T00:21:23.300Z,101934.13
2022-11-28T00:23:52.851Z,101936.97
2022-11-28T00:26:27.168Z,101934.88
2022-11-28T00:28:56.575Z,101925.88
2022-11-28T00:31:26.163Z,101925.31
2022-11-28T00:33:54.202Z,101929.63
2022-11-28T00:36:22.935Z,101925.59
2022-11-28T00:38:51.257Z,101922.19
2022-11-28T00:41:28.421Z,101911.94
2022-11-28T00:43:55.956Z,101920.41
2022-11-28T00:46:24.610Z,101925.16
2022-11-28T00:48:52.395Z,101922.03
2022-11-28T00:51:22.902Z,101918.19
2022-11-28T00:53:52.151Z,101921.84
2022-11-28T00:56:22.305Z,101917.88
2022-11-28T00:58:50.003Z,101919.34
2022-11-28T01:01:17.286Z,101916.19
2022-11-28T01:03:45.680Z,101917.75
2022-11-28T01:06:13.697Z,101913.47
2022-11-28T01:08:41.038Z,101901.59
2022-11-28T01:11:12.939Z,101901.31
2022-11-28T01:13:40.305Z,101903.31
2022-11-28T01:16:09.454Z,101901.00
2022-11-28T01:18:37.802Z,101902.50
2022-11-28T01:21:07.016Z,101900.34
2022-11-28T01:23:35.285Z,101899.41
2022-11-28T01:26:03.782Z,101895.63
2022-11-28T01:28:31.161Z,101894.34
2022-11-28T01:31:04.482Z,101884.28
2022-11-28T01:33:33.212Z,101881.88
2022-11-28T01:36:01.101Z,101884.75
2022-11-28T01:38:29.459Z,101888.16
2022-11-28T01:40:58.054Z,101881.50
2022-11-28T01:43:25.535Z,101878.00
2022-11-28T01:45:53.299Z,101866.50
2022-11-28T01:48:29.323Z,101868.25
2022-11-28T01:51:01.059Z,101859.59
2022-11-28T01:53:31.122Z,101861.81
2022-11-28T01:56:20.984Z,101863.88
2022-11-28T01:58:53.970Z,101865.06
2022-11-28T02:01:24.365Z,101868.53
2022-11-28T02:03:53.331Z,101858.00
2022-11-28T02:06:23.317Z,101859.91
2022-11-28T02:08:52.698Z,101861.94
2022-11-28T02:11:44.754Z,101863.53
2022-11-28T02:14:44.285Z,101863.97
2022-11-28T02:17:33.419Z,101862.88
2022-11-28T02:20:18.631Z,101855.97
2022-11-28T02:23:15.379Z,101855.22
2022-11-28T02:26:13.839Z,101844.44
2022-11-28T02:28:50.410Z,101848.78
2022-11-28T02:31:52.954Z,101838.25
2022-11-28T02:34:40.345Z,101838.00
2022-11-28T02:37:30.239Z,101842.44
2022-11-28T02:40:14.578Z,101832.38
2022-11-28T02:43:20.362Z,101831.63
2022-11-28T02:45:59.919Z,101824.81
2022-11-28T02:48:31.602Z,101826.72
2022-11-28T02:51:06.321Z,101819.59
2022-11-28T02:53:35.030Z,101817.47
2022-11-28T02:56:02.649Z,101807.16
2022-11-28T02:58:30.103Z,101803.19
2022-11-28T03:00:57.779Z,101799.97
2022-11-28T03:03:46.246Z,101794.56
2022-11-28T03:06:44.533Z,101798.66
2022-11-28T03:09:46.369Z,101795.38
2022-11-28T03:12:51.552Z,101793.25
2022-11-28T03:15:28.994Z,101796.91
2022-11-28T03:18:06.050Z,101803.47
2022-11-28T03:20:39.682Z,101799.22
2022-11-28T03:23:23.687Z,101799.97
2022-11-28T03:26:01.778Z,101784.88
2022-11-28T03:28:40.572Z,101785.84
2022-11-28T03:31:15.688Z,101790.84
2022-11-28T03:33:50.070Z,101786.81
2022-11-28T03:36:31.403Z,101790.13
2022-11-28T03:39:04.985Z,101786.88
2022-11-28T03:42:07.295Z,101786.72
2022-11-28T03:44:45.568Z,101778.56
2022-11-28T03:47:12.910Z,101770.97
2022-11-28T03:49:53.006Z,101774.06
2022-11-28T03:52:35.963Z,101768.28
2022-11-28T03:55:13.578Z,101767.00
2022-11-28T03:58:09.942Z,101762.50
2022-11-28T04:00:48.713Z,101758.09
2022-11-28T04:03:33.042Z,101757.53
2022-11-28T04:06:07.994Z,101761.75
2022-11-28T04:08:53.001Z,101758.53
2022-11-28T04:11:25.943Z,101752.56
2022-11-28T04:14:12.352Z,101761.09
2022-11-28T04:16:56.714Z,101761.09
2022-11-28T04:19:46.516Z,101753.97
2022-11-28T04:22:21.356Z,101758.09
2022-11-28T04:24:54.426Z,101751.13
2022-11-28T04:27:30.577Z,101754.13
2022-11-28T04:30:01.657Z,101755.41
2022-11-28T04:32:32.429Z,101757.09
2022-11-28T04:35:06.506Z,101764.03
2022-11-28T04:37:37.351Z,101761.19
2022-11-28T04:40:08.184Z,101753.38
2022-11-28T04:42:49.919Z,101737.59
2022-11-28T04:45:30.855Z,101746.13
2022-11-28T04:47:59.080Z,101750.97
2022-11-28T04:50:32.076Z,101752.78
2022-11-28T04:53:33.076Z,101748.25
2022-11-28T04:56:05.295Z,101754.63
2022-11-28T04:58:40.360Z,101741.16
2022-11-28T05:01:11.764Z,101743.09
2022-11-28T05:03:42.759Z,101747.66
2022-11-28T05:06:11.065Z,101743.72
2022-11-28T05:08:38.645Z,101738.44
2022-11-28T05:11:05.941Z,101742.03
2022-11-28T05:13:33.199Z,101745.16
2022-11-28T05:16:01.469Z,101735.63
2022-11-28T05:18:31.021Z,101733.94
2022-11-28T05:20:59.276Z,101730.38
2022-11-28T05:23:26.586Z,101733.78
2022-11-28T05:25:53.832Z,101727.69
2022-11-28T05:28:21.071Z,101737.03
2022-11-28T05:30:58.121Z,101727.81
2022-11-28T05:33:25.459Z,101729.13
2022-11-28T05:35:52.983Z,101731.25
2022-11-28T05:38:20.316Z,101726.66
2022-11-28T05:40:48.361Z,101734.63
2022-11-28T05:43:16.234Z,101732.63
2022-11-28T05:45:44.973Z,101726.41
2022-11-28T05:48:12.697Z,101725.50
2022-11-28T05:50:41.523Z,101737.97
2022-11-28T05:53:09.473Z,101733.75
2022-11-28T05:55:41.149Z,101721.00
2022-11-28T05:58:08.621Z,101721.13
2022-11-28T06:00:36.272Z,101714.31
2022-11-28T06:03:04.742Z,101702.38
2022-11-28T06:05:42.643Z,101703.25
2022-11-28T06:08:12.429Z,101696.13
2022-11-28T06:10:40.903Z,101705.50
2022-11-28T06:13:08.899Z,101700.81
2022-11-28T06:15:37.955Z,101689.75
2022-11-28T06:18:06.063Z,101683.63
2022-11-28T06:20:35.223Z,101677.50
2022-11-28T06:23:02.892Z,101687.03
2022-11-28T06:25:30.545Z,101680.94
2022-11-28T06:27:57.786Z,101677.94
2022-11-28T06:30:25.347Z,101680.78
2022-11-28T06:32:53.030Z,101681.50
2022-11-28T06:35:20.786Z,101678.94
2022-11-28T06:37:48.548Z,101682.22
2022-11-28T06:40:16.001Z,101680.50
2022-11-28T06:42:43.939Z,101681.38
2022-11-28T06:45:11.644Z,101680.50
2022-11-28T06:47:39.297Z,101682.94
2022-11-28T06:50:09.659Z,101677.69
2022-11-28T06:52:37.235Z,101670.84
2022-11-28T06:55:04.788Z,101663.88
2022-11-28T06:57:32.807Z,101668.03
2022-11-28T07:00:00.115Z,101671.28
2022-11-28T07:02:28.043Z,101667.84
2022-11-28T07:04:55.346Z,101673.56
2022-11-28T07:07:23.072Z,101670.56
2022-11-28T07:09:51.027Z,101668.72
2022-11-28T07:12:19.595Z,101675.41
2022-11-28T07:14:47.517Z,101674.13
2022-11-28T07:17:15.337Z,101672.13
2022-11-28T07:19:43.179Z,101661.34
2022-11-28T07:22:11.763Z,101659.19
2022-11-28T07:24:39.234Z,101654.06
2022-11-28T07:27:06.551Z,101660.28
2022-11-28T07:29:36.810Z,101655.75
2022-11-28T07:32:06.205Z,101655.31
2022-11-28T07:34:33.809Z,101658.34
2022-11-28T07:37:01.689Z,101660.19
2022-11-28T07:39:29.001Z,101667.56
2022-11-28T07:41:56.503Z,101661.06
2022-11-28T07:44:23.954Z,101667.28
2022-11-28T07:46:51.695Z,101664.84
2022-11-28T07:49:19.451Z,101663.28
2022-11-28T07:51:47.705Z,101663.56
2022-11-28T07:54:15.031Z,101654.44
2022-11-28T07:59:30.605Z,101656.19
2022-11-28T08:01:58.073Z,101664.00
2022-11-28T08:04:25.494Z,101669.13
2022-11-28T08:06:52.895Z,101677.97
2022-11-28T08:09:20.173Z,101686.44
2022-11-28T08:11:47.555Z,101684.50
2022-11-28T08:14:14.861Z,101687.19
2022-11-28T08:16:45.128Z,101685.63
2022-11-28T08:19:13.281Z,101677.13
2022-11-28T08:21:41.777Z,101677.97
2022-11-28T08:24:10.772Z,101670.94
2022-11-28T08:26:38.267Z,101668.34
2022-11-28T08:29:05.615Z,101670.22
2022-11-28T08:31:36.815Z,101662.25
2022-11-28T08:34:07.378Z,101660.63
2022-11-28T08:36:34.835Z,101655.28
2022-11-28T08:41:56.995Z,101656.19
2022-11-28T08:44:25.541Z,101654.81
2022-11-28T08:46:53.738Z,101660.63
2022-11-28T08:49:21.035Z,101659.41
2022-11-28T08:51:48.371Z,101655.91
2022-11-28T08:54:16.183Z,101654.06
2022-11-28T08:56:45.259Z,101650.75
2022-11-28T08:59:12.949Z,101652.50
2022-11-28T09:01:41.681Z,101653.63
2022-11-28T09:04:11.731Z,101656.47
2022-11-28T09:06:40.269Z,101648.22
2022-11-28T09:09:09.102Z,101654.22
2022-11-28T09:11:37.373Z,101653.97
2022-11-28T09:14:05.731Z,101658.59
2022-11-28T09:16:33.139Z,101650.03
2022-11-28T09:19:01.069Z,101657.63
2022-11-28T09:21:28.347Z,101670.47
2022-11-28T09:23:56.470Z,101657.09
2022-11-28T09:26:25.382Z,101666.69
2022-11-28T09:28:53.798Z,101665.13
2022-11-28T09:31:21.596Z,101670.09
2022-11-28T09:33:51.763Z,101666.16
2022-11-28T09:36:22.150Z,101656.19
2022-11-28T09:38:49.924Z,101661.34
2022-11-28T09:41:39.118Z,101660.81
2022-11-28T09:44:24.206Z,101672.03
2022-11-28T09:46:55.295Z,101667.91
2022-11-28T09:49:34.013Z,101675.28
2022-11-28T09:52:18.007Z,101672.22
2022-11-28T09:54:52.497Z,101673.91
2022-11-28T09:57:33.535Z,101670.91
2022-11-28T10:00:01.455Z,101665.03
2022-11-28T10:03:14.477Z,101654.34
2022-11-28T10:06:10.779Z,101658.78
2022-11-28T10:09:15.182Z,101657.56
2022-11-28T10:11:53.795Z,101655.94
2022-11-28T10:14:35.715Z,101654.59
2022-11-28T10:17:15.408Z,101646.56
2022-11-28T10:19:56.199Z,101643.16
2022-11-28T10:22:44.484Z,101643.31
2022-11-28T10:25:21.269Z,101642.16
2022-11-28T10:27:50.306Z,101640.84
2022-11-28T10:30:28.928Z,101639.38
2022-11-28T10:32:59.522Z,101635.66
2022-11-28T10:35:35.505Z,101621.13
2022-11-28T10:38:10.314Z,101616.34
2022-11-28T10:40:58.426Z,101610.06
2022-11-28T10:43:32.911Z,101610.94
2022-11-28T10:46:14.116Z,101606.97
2022-11-28T10:49:12.528Z,101604.28
2022-11-28T10:51:54.958Z,101609.22
2022-11-28T10:54:46.899Z,101600.72
2022-11-28T10:57:32.995Z,101595.81
2022-11-28T11:00:13.115Z,101592.00
2022-11-28T11:02:49.235Z,101596.19
2022-11-28T11:05:28.940Z,101591.03
2022-11-28T11:08:11.478Z,101583.56
2022-11-28T11:10:49.238Z,101575.88
2022-11-28T11:13:26.342Z,101577.38
2022-11-28T11:16:00.947Z,101575.31
2022-11-28T11:18:34.943Z,101578.63
2022-11-28T11:21:18.322Z,101570.78
2022-11-28T11:23:47.487Z,101570.50
2022-11-28T11:26:27.735Z,101563.69
2022-11-28T11:28:56.176Z,101567.75
2022-11-28T11:31:44.923Z,101551.19
2022-11-28T11:34:21.383Z,101556.06
2022-11-28T11:36:49.814Z,101548.88
2022-11-28T11:39:23.760Z,101546.63
2022-11-28T11:42:00.519Z,101541.25
2022-11-28T11:44:29.822Z,101531.28
2022-11-28T11:47:03.998Z,101529.88
2022-11-28T11:49:41.468Z,101526.09
2022-11-28T11:52:14.976Z,101518.31
2022-11-28T11:54:57.478Z,101504.66
2022-11-28T11:57:33.654Z,101497.03
2022-11-28T12:00:13.677Z,101499.50
2022-11-28T12:03:11.689Z,101485.59
2022-11-28T12:06:14.383Z,101482.03
2022-11-28T12:09:09.212Z,101472.53
2022-11-28T12:11:47.085Z,101473.66
2022-11-28T12:14:34.216Z,101465.44
2022-11-28T12:20:42.184Z,101456.47
2022-11-28T12:23:30.850Z,101453.25
2022-11-28T12:26:14.374Z,101463.41
2022-11-28T12:29:07.103Z,101456.28
2022-11-28T12:31:44.822Z,101465.56
2022-11-28T12:34:21.199Z,101462.34
2022-11-28T12:37:09.571Z,101449.53
2022-11-28T12:39:49.614Z,101441.38
2022-11-28T12:42:29.489Z,101448.47
2022-11-28T12:45:21.724Z,101444.06
2022-11-28T12:48:01.762Z,101446.63
2022-11-28T12:50:32.071Z,101451.34
2022-11-28T12:53:21.196Z,101451.84
2022-11-28T12:56:10.869Z,101455.59
2022-11-28T12:58:47.476Z,101445.94
2022-11-28T13:01:20.810Z,101442.72
2022-11-28T13:04:13.709Z,101422.91
2022-11-28T13:07:15.467Z,101424.41
2022-11-28T13:09:58.485Z,101431.63
2022-11-28T13:12:30.255Z,101426.88
2022-11-28T13:15:22.859Z,101425.09
2022-11-28T13:18:22.559Z,101419.31
2022-11-28T13:21:07.156Z,101425.25
2022-11-28T13:23:47.901Z,101414.25
2022-11-28T13:26:18.264Z,101417.78
2022-11-28T13:28:57.845Z,101414.91
2022-11-28T13:31:29.545Z,101418.50
2022-11-28T13:33:57.770Z,101407.97
2022-11-28T13:39:51.885Z,101412.72
2022-11-28T13:43:02.359Z,101410.16
2022-11-28T13:45:32.239Z,101412.91
2022-11-28T13:48:20.259Z,101408.50
2022-11-28T13:51:18.578Z,101404.09
2022-11-28T13:53:49.489Z,101408.81
2022-11-28T13:56:23.880Z,101408.47
2022-11-28T13:59:00.752Z,101407.13
2022-11-28T14:01:42.601Z,101413.91
2022-11-28T14:04:13.648Z,101415.78
2022-11-28T14:06:44.717Z,101425.50
2022-11-28T14:09:12.345Z,101418.63
2022-11-28T14:11:42.828Z,101421.72
2022-11-28T14:14:35.585Z,101420.06
2022-11-28T14:17:21.577Z,101425.16
2022-11-28T14:19:58.132Z,101423.78
2022-11-28T14:22:56.674Z,101420.13
2022-11-28T14:25:31.026Z,101423.28
2022-11-28T14:28:16.003Z,101427.28
2022-11-28T14:30:45.702Z,101430.50
2022-11-28T14:33:47.354Z,101427.06
2022-11-28T14:36:30.687Z,101436.00
2022-11-28T14:39:03.815Z,101440.97
2022-11-28T14:41:31.355Z,101441.97
2022-11-28T14:44:54.770Z,101431.25
2022-11-28T14:47:23.713Z,101430.38
2022-11-28T14:50:06.090Z,101425.09
2022-11-28T14:52:46.450Z,101418.53
2022-11-28T14:55:20.532Z,101425.31
2022-11-28T14:57:59.672Z,101424.59
2022-11-28T15:00:35.033Z,101422.06
2022-11-28T15:03:36.617Z,101431.25
2022-11-28T15:06:20.938Z,101414.59
2022-11-28T15:09:07.087Z,101419.50
2022-11-28T15:12:08.293Z,101413.88
2022-11-28T15:14:38.822Z,101420.94
2022-11-28T15:17:12.083Z,101427.31
2022-11-28T15:19:47.559Z,101435.91
2022-11-28T15:22:39.539Z,101436.25
2022-11-28T15:25:29.458Z,101441.75
2022-11-28T15:28:13.450Z,101434.00
2022-11-28T15:30:47.068Z,101432.31
2022-11-28T15:33:15.575Z,101427.22
2022-11-28T15:36:12.970Z,101435.50
2022-11-28T15:38:42.974Z,101441.19
2022-11-28T15:41:10.735Z,101428.53
2022-11-28T15:43:44.468Z,101431.69
2022-11-28T15:46:24.656Z,101428.50
2022-11-28T15:48:53.064Z,101429.56
2022-11-28T15:51:32.886Z,101431.56
2022-11-28T15:54:27.462Z,101428.53
2022-11-28T15:56:59.699Z,101437.09
2022-11-28T15:59:28.031Z,101431.47
2022-11-28T16:02:00.487Z,101437.53
2022-11-28T16:04:29.730Z,101427.38
2022-11-28T16:07:00.994Z,101427.22
2022-11-28T16:09:35.054Z,101435.69
2022-11-28T16:12:05.651Z,101431.81
2022-11-28T16:14:35.645Z,101435.03
2022-11-28T16:17:13.303Z,101428.19
2022-11-28T16:19:43.747Z,101422.44
2022-11-28T16:22:17.580Z,101431.19
2022-11-28T16:24:55.312Z,101420.44
2022-11-28T16:27:44.373Z,101424.34
2022-11-28T16:30:26.872Z,101420.75
2022-11-28T16:32:55.947Z,101424.28
2022-11-28T16:35:40.318Z,101418.34
2022-11-28T16:38:23.634Z,101422.75
2022-11-28T16:40:58.941Z,101418.19
2022-11-28T16:43:32.457Z,101422.75
2022-11-28T16:46:01.963Z,101426.09
2022-11-28T16:48:36.554Z,101420.53
2022-11-28T16:51:13.219Z,101419.34
2022-11-28T16:53:51.907Z,101415.16
2022-11-28T16:56:29.759Z,101420.91
2022-11-28T16:59:09.732Z,101411.72
2022-11-28T17:01:37.464Z,101413.28
2022-11-28T17:04:05.138Z,101416.97
2022-11-28T17:06:37.377Z,101421.75
2022-11-28T17:09:09.325Z,101414.41
2022-11-28T17:11:38.731Z,101414.56
2022-11-28T17:14:13.083Z,101415.97
2022-11-28T17:16:42.947Z,101409.88
2022-11-28T17:19:10.837Z,101415.13
2022-11-28T17:21:48.656Z,101412.03
2022-11-28T17:24:22.236Z,101404.47
2022-11-28T17:26:50.739Z,101412.09
2022-11-28T17:29:19.941Z,101408.44
2022-11-28T17:31:48.803Z,101394.00
2022-11-28T17:34:21.875Z,101392.41
2022-11-28T17:36:49.640Z,101404.22
2022-11-28T17:39:18.514Z,101397.66
2022-11-28T17:41:47.438Z,101399.06
2022-11-28T17:44:33.082Z,101396.59
2022-11-28T17:47:02.762Z,101395.28
2022-11-28T17:49:33.736Z,101396.81
2022-11-28T17:52:01.110Z,101396.34
2022-11-28T17:54:29.582Z,101388.16
2022-11-28T17:56:57.584Z,101387.31
2022-11-28T17:59:24.891Z,101390.03
2022-11-28T18:01:52.584Z,101386.16
2022-11-28T18:04:24.742Z,101388.16
2022-11-28T18:06:52.747Z,101381.00
2022-11-28T18:09:20.065Z,101387.13
2022-11-28T18:11:47.670Z,101377.28
2022-11-28T18:14:19.218Z,101380.75
2022-11-28T18:16:47.630Z,101382.03
2022-11-28T18:19:15.647Z,101389.97
2022-11-28T18:21:43.394Z,101386.69
2022-11-28T18:24:10.718Z,101390.03
2022-11-28T18:26:38.430Z,101392.88
2022-11-28T18:29:07.347Z,101392.44
2022-11-28T18:31:35.757Z,101387.13
2022-11-28T18:34:06.550Z,101378.84
2022-11-28T18:36:37.057Z,101385.44
2022-11-28T18:39:08.927Z,101379.41
2022-11-28T18:41:36.712Z,101377.25
2022-11-28T18:44:05.288Z,101373.19
2022-11-28T18:46:33.435Z,101371.25
2022-11-28T18:49:01.760Z,101369.53
2022-11-28T18:51:32.366Z,101366.84
2022-11-28T18:54:03.479Z,101371.88
2022-11-28T18:56:31.911Z,101371.25
2022-11-28T18:59:00.248Z,101374.78
2022-11-28T19:01:31.245Z,101374.47
2022-11-28T19:04:09.283Z,101377.44
2022-11-28T19:06:39.114Z,101378.44
2022-11-28T19:09:10.309Z,101375.66
2022-11-28T19:11:38.911Z,101377.75
2022-11-28T19:14:08.042Z,101378.44
2022-11-28T19:16:37.575Z,101376.38
2022-11-28T19:19:06.600Z,101374.06
2022-11-28T19:21:36.691Z,101373.00
2022-11-28T19:24:07.989Z,101376.94
2022-11-28T19:26:37.230Z,101377.66
2022-11-28T19:29:05.702Z,101385.69
2022-11-28T19:31:35.172Z,101381.25
2022-11-28T19:34:12.590Z,101397.69
2022-11-28T19:36:48.221Z,101395.75
2022-11-28T19:39:22.111Z,101395.69
2022-11-28T19:41:52.534Z,101390.47
2022-11-28T19:44:21.894Z,101391.31
2022-11-28T19:46:50.321Z,101384.13
2022-11-28T19:49:20.819Z,101387.59
2022-11-28T19:51:50.090Z,101392.53
2022-11-28T19:54:21.507Z,101389.41
2022-11-28T19:56:49.674Z,101397.81
2022-11-28T19:59:18.557Z,101388.63
2022-11-28T20:01:48.859Z,101391.03
2022-11-28T20:04:16.426Z,101400.00
2022-11-28T20:06:44.276Z,101399.19
2022-11-28T20:09:13.726Z,101395.47
2022-11-28T20:11:43.687Z,101401.75
2022-11-28T20:14:14.198Z,101402.81
2022-11-28T20:16:41.688Z,101400.34
2022-11-28T20:19:11.014Z,101403.16
2022-11-28T20:21:38.952Z,101399.19
2022-11-28T20:24:07.421Z,101399.41
2022-11-28T20:26:38.683Z,101405.44
2022-11-28T20:29:07.306Z,101398.09
2022-11-28T20:31:37.213Z,101403.19
2022-11-28T20:34:06.494Z,101394.78
2022-11-28T20:36:34.604Z,101391.25
2022-11-28T20:39:04.023Z,101392.81
2022-11-28T20:41:32.138Z,101390.09
2022-11-28T20:44:00.910Z,101387.78
2022-11-28T20:46:34.073Z,101385.44
2022-11-28T20:49:04.033Z,101401.13
2022-11-28T20:51:33.891Z,101399.72
2022-11-28T20:54:02.093Z,101400.03
2022-11-28T20:56:31.812Z,101394.56
2022-11-28T20:59:01.005Z,101395.88
2022-11-28T21:01:33.199Z,101391.31
2022-11-28T21:04:06.407Z,101393.22
2022-11-28T21:06:36.390Z,101392.09
2022-11-28T21:09:07.605Z,101392.41
2022-11-28T21:11:56.130Z,101394.69
2022-11-28T21:14:23.464Z,101394.31
2022-11-28T21:16:50.854Z,101380.97
2022-11-28T21:19:18.227Z,101382.75
2022-11-28T21:21:45.489Z,101387.56
2022-11-28T21:24:14.353Z,101385.13
2022-11-28T21:26:46.617Z,101387.63
2022-11-28T21:29:18.661Z,101383.75
2022-11-28T21:31:46.743Z,101386.94
2022-11-28T21:34:16.406Z,101387.25
2022-11-28T21:36:44.455Z,101383.66
2022-11-28T21:39:14.168Z,101378.56
2022-11-28T21:41:41.722Z,101380.03
2022-11-28T21:44:09.806Z,101379.97
2022-11-28T21:46:37.083Z,101376.97
2022-11-28T21:49:04.418Z,101378.72
2022-11-28T21:51:32.822Z,101374.88
2022-11-28T21:54:01.966Z,101375.25
2022-11-28T21:56:30.134Z,101372.25
2022-11-28T21:58:57.492Z,101388.31
2022-11-28T22:01:25.085Z,101381.53
2022-11-28T22:03:54.441Z,101388.34
2022-11-28T22:06:27.447Z,101380.19
2022-11-28T22:08:55.221Z,101384.97
2022-11-28T22:11:24.160Z,101379.66
2022-11-28T22:13:52.808Z,101385.66
2022-11-28T22:16:25.979Z,101385.88
2022-11-28T22:18:57.396Z,101386.16
2022-11-28T22:24:14.548Z,101381.75
2022-11-28T22:26:42.308Z,101383.91
2022-11-28T22:29:10.042Z,101384.75
2022-11-28T22:31:38.225Z,101375.53
2022-11-28T22:34:08.396Z,101383.00
2022-11-28T22:36:35.747Z,101381.75
2022-11-28T22:39:06.148Z,101382.41
2022-11-28T22:41:33.824Z,101378.34
2022-11-28T22:44:02.540Z,101381.69
2022-11-28T22:46:32.210Z,101384.44
2022-11-28T22:49:00.775Z,101377.50
2022-11-28T22:51:29.794Z,101382.03
2022-11-28T22:53:59.569Z,101387.38
